METAR Data
IDs: Format: Raw Decoded Include TAF

Data at: 2019 UTC 19 May 2019

PARS 191956Z AUTO VRB04KT 10SM FEW055 13/03 A2972 RMK AO2 SLP070 T01280033 PNO $
PARS 191856Z AUTO 01005KT 10SM CLR 12/04 A2973 RMK AO2 SLP073 T01220039 PNO $
PARS 191756Z AUTO 00000KT 10SM OVC100 10/04 A2975 RMK AO2 SLP077 6//// T01000039 10100 20033 58005 PNO $
PARS 191656Z AUTO 33005KT 10SM FEW060 OVC100 08/03 A2976 RMK AO2 SLP082 T00780033 PNO $
PARS 191556Z AUTO 00000KT 10SM OVC095 05/03 A2976 RMK AO2 SLP082 T00500028 PNO $
PARS 191456Z AUTO 24003KT 10SM FEW055 04/02 A2976 RMK AO2 SLP082 6//// T00390022 58003 PNO $
PARS 191356Z AUTO 00000KT 10SM SCT065 03/02 A2977 RMK AO2 SLP085 T00330022 PNO $
PARS 191256Z AUTO 26003KT 10SM BKN060 BKN080 06/02 A2977 RMK AO2 SLP085 T00560022 PNO $
PARS 191156Z AUTO 29003KT 10SM FEW075 BKN110 07/03 A2977 RMK AO2 SLP086 6//// 7//// T00720028 10128 20067 58003 PNO $
PARS 191056Z AUTO 33003KT 10SM FEW060 OVC090 07/03 A2979 RMK AO2 SLP091 T00720033 PNO $
PARS 190956Z AUTO 33003KT 10SM FEW070 OVC090 08/03 A2978 RMK AO2 SLP087 T00830028 PNO $
PARS 190856Z AUTO 28005KT 10SM BKN085 09/03 A2978 RMK AO2 SLP088 6//// T00890028 51007 PNO $
PARS 190756Z AUTO 30004KT 10SM CLR 10/02 A2977 RMK AO2 RAE0659 SLP087 T01000022 401440000 PNO $
PARS 190656Z AUTO 31004KT 10SM -RA BKN047 OVC060 12/03 A2977 RMK AO2 RAB38 SLP084 T01170028 PNO $
PARS 190556Z AUTO 27004KT 10SM OVC065 13/02 A2976 RMK AO2 SLP081 6//// T01280022 10144 20111 55000 PNO $
PARS 190456Z AUTO 06003KT 10SM BKN060 12/02 A2976 RMK AO2 SLP081 T01170022 PNO $
PARS 190356Z AUTO VRB03KT 9SM BKN060 14/02 A2976 RMK AO2 SLP081 T01390022 PNO $
PARS 190256Z AUTO 14005KT 10SM FEW085 13/02 A2976 RMK AO2 SLP082 6//// T01330017 56008 PNO $
PARS 190156Z AUTO 13005KT 10SM CLR 13/01 A2977 RMK AO2 SLP084 T01280011 PNO $
PARS 190056Z AUTO 12003KT 10SM CLR 13/03 A2977 RMK AO2 SLP087 T01280028 PNO $
PARS 182356Z AUTO 12005KT 10SM CLR 11/03 A2978 RMK AO2 SLP090 6//// T01110033 10117 20050 58005 PNO $
PARS 182256Z AUTO 12006KT 10SM CLR 10/03 A2979 RMK AO2 SLP092 T01000033 PNO $
PARS 182156Z AUTO VRB03KT 10SM CLR 09/04 A2979 RMK AO2 SLP094 T00890039 PNO $
PARS 182127Z AUTO 10005KT 10SM SCT017 07/03 A2980 RMK AO2 PNO $
PARS 182056Z AUTO VRB04KT 10SM OVC015 07/04 A2980 RMK AO2 SLP095 6//// T00720039 51006 PNO $
PARS 181956Z AUTO VRB05KT 10SM OVC013 07/03 A2980 RMK AO2 SLP094 T00670033 PNO $
PARS 181856Z AUTO 14003KT 10SM OVC013 06/04 A2979 RMK AO2 SLP092 T00610039 PNO $
PARS 181756Z AUTO 00000KT 10SM OVC011 05/03 A2978 RMK AO2 SLP089 6//// T00500033 10050 20000 53009 PNO $
PARS 181656Z AUTO 00000KT 10SM OVC011 04/04 A2977 RMK AO2 SLP085 T00390039 PNO $
PARS 181643Z AUTO 00000KT 10SM OVC013 04/03 A2977 RMK AO2 PNO $
PARS 181556Z AUTO 24003KT 9SM OVC017 02/02 A2976 RMK AO2 SLP081 T00220022 FZRANO PNO $
PARS 181529Z AUTO 00000KT 10SM SCT012 OVC019 02/02 A2976 RMK AO2 FZRANO PNO $
PARS 181522Z AUTO 00000KT 10SM BKN012 OVC021 02/02 A2976 RMK AO2 FZRANO PNO $
PARS 181456Z AUTO 25003KT 10SM OVC021 01/01 A2975 RMK AO2 SLP079 6//// T00110011 51016 FZRANO PNO $
PARS 181356Z AUTO 00000KT 10SM OVC025 01/00 A2975 RMK AO2 SLP077 T00060000 FZRANO PNO $
PARS 181345Z AUTO 25004KT 10SM BKN027 01/00 A2974 RMK AO2 FZRANO PNO $
PARS 181256Z AUTO 00000KT 10SM CLR 00/M01 A2972 RMK AO2 SLP070 T00001006 FZRANO PNO $
PARS 181156Z AUTO 25003KT 10SM FEW032 01/01 A2970 RMK AO2 SLP063 6//// 7//// T00110006 10100 20011 51018 FZRANO PNO $
PARS 181056Z AUTO 00000KT 10SM CLR 02/02 A2969 RMK AO2 SLP058 T00220017 FZRANO PNO $
PARS 180956Z AUTO 23004KT 10SM CLR 03/03 A2967 RMK AO2 SLP051 T00330028 PNO $
PARS 180856Z AUTO 24005KT 10SM CLR 04/03 A2965 RMK AO2 SLP045 6//// T00440033 51021 PNO $